Flight Track Log - Related Links

Times and Time Zones

All times are in EDT time to prevent confusion due to time zone crossing. See the SKW2974 flight status page for this flight to view local times or setup timezone preferences in your user account.

Time Position Orientation Groundspeed Altitude Reporting Facility
EDT Latitude Longitude Course Direction KTS MPH feet Rate Location/Type
Fri 10:23:49 AM 32.6667 -114.5675 64° Northeast 174 200 1,000  Level Los Angeles Center
Fri 10:24:43 AM 32.6886 -114.5136 64° Northeast 215 247 2,700 1,686 Climbing Los Angeles Center
Fri 10:25:50 AM 32.7239 -114.4306 63° Northeast 260 299 4,400 1,748 Climbing Los Angeles Center
Fri 10:26:50 AM 32.7572 -114.3481 64° Northeast 293 337 6,400 1,934 Climbing Los Angeles Center
Fri 10:27:51 AM 32.7733 -114.2550 78° East 305 351 8,300 2,204 Climbing Los Angeles Center
Fri 10:29:17 AM 32.7756 -114.1289 89° East 275 316 11,800 1,946 Climbing Los Angeles Center
Fri 10:30:19 AM 32.7772 -114.0300 89° East 305 351 13,100 1,500 Climbing Los Angeles Center
Fri 10:31:21 AM 32.7833 -113.9194 86° East 303 349 14,900 871 Climbing Los Angeles Center
Fri 10:32:23 AM 32.7986 -113.8211 80° East 301 346 14,900  Level Los Angeles Center
Fri 10:33:25 AM 32.8128 -113.7228 80° East 302 348 14,900  Level Los Angeles Center
Fri 10:34:27 AM 32.8567 -113.6364 59° Northeast 312 359 14,900  Level Los Angeles Center
Fri 10:35:29 AM 32.9150 -113.5569 49° Northeast 315 362 14,900  Level Los Angeles Center
Fri 10:36:34 AM 32.9842 -113.4633 49° Northeast 311 358 14,900  Level Albuquerque Center
Fri 10:37:36 AM 33.0450 -113.3819 48° Northeast 317 365 14,900  Level Albuquerque Center
Fri 10:38:37 AM 33.1064 -113.2972 49° Northeast 325 374 14,900 49 Level Albuquerque Center
Fri 10:39:39 AM 33.1683 -113.2139 48° Northeast 331 381 15,000 48 Climbing Albuquerque Center
Fri 10:40:41 AM 33.2292 -113.1331 48° Northeast 330 380 15,000 -48 Level Albuquerque Center
Fri 10:41:43 AM 33.2750 -113.0217 64° Northeast 327 376 14,900 -629 Descending Albuquerque Center
Fri 10:42:45 AM 33.2778 -112.9144 88° East 322 371 13,700 -1,548 Descending Albuquerque Center
Fri 10:43:47 AM 33.2822 -112.8139 87° East 311 358 11,700 -1,790 Descending Albuquerque Center
Fri 10:44:49 AM 33.3156 -112.7256 66° East 297 342 10,000 -968 Descending Albuquerque Center
Fri 10:45:51 AM 33.3464 -112.6425 66° East 280 322 9,700 -629 Descending Albuquerque Center
Fri 10:46:53 AM 33.3758 -112.5650 66° East 259 298 8,700 -1,065 Descending Albuquerque Center
Fri 10:47:55 AM 33.3869 -112.4656 82° East 259 298 7,500 -1,113 Descending Albuquerque Center
Fri 10:48:57 AM 33.3953 -112.3819 83° East 255 293 6,400 -774 Descending Albuquerque Center
Fri 10:49:59 AM 33.4089 -112.3000 79° East 253 291 5,900 -1,258 Descending Albuquerque Center
Fri 10:51:01 AM 33.4253 -112.2192 76° East 252 290 3,800 -1,403 Descending Albuquerque Center
Fri 10:52:03 AM 33.4403 -112.1461 76° East 227 261 3,000 -891 Descending Albuquerque Center
Fri 10:52:42 AM 33.4333 -112.1000 100° East 185 213 2,300 -909 Descending Phoenix TRACON
Fri 10:53:42 AM 33.4333 -112.0500 90° East 152 175 1,500 -800 Descending Phoenix TRACON
Fri 10:56:00 AM 33.4343 -112.0116 107° East  Level Estimated

Login

Don't have an account? Register now (free) for customized features, flight alerts, and more!